Sign in:
Email
 Password  save:
  
 Company Reports 
 
   
My Recent Searches
  Help
 
   
 
 
Get Institutions for : 
Liberty Media Corporation (LMCA)    
$38.10 0.99 (2.52%) as of 4:30 Wed 3/25


Download
     
Institutional Holders
Viewing Quarter :
  
Total Institutions: 328    22
Total shares held : 
83,459,833  
% of shares held : 
69.26%  
Changes In:
New/increased positions vs   
old/decreased positions : 
  -16  
Amount of shares held : 
-1,160,553  
% of shares held change : 
  -0.96%  
Quarter Price vs. Current Price:
Last Quarter's Starting Price
$45.82  
Last Quarter's Ending Price : 
$35.27  
Last Quarter's Average Price
$39.43  
Change from last quarter's     
avg. price to the last closing  : 
1.33 (3.38%)  




 
All Securities Held :
Positions
     Shares
% Of
Total Shares
New Positions :
37
 4,041,447
 4.84%
 
Increased Positions :
107
 6,656,855
 7.98%
 
Unchanged Positions :
83
 7,339,570
 8.79%
 
Decreased Positions :
101
-6,528,026
-7.82%
 
Closed Positions :
59
-5,330,829
-6.39%
 
Guru Positions :
2
5,107,317
 6.12%
 
View holdings for period: 
12-31-2012 View holdings for period: 
3-31-2013 View holdings for period: 
6-30-2013 View holdings for period: 
9-30-2013 View holdings for period: 
12-31-2013 View holdings for period: 
3-31-2014 View holdings for period: 
6-30-2014 View holdings for the current period

  Page 1 of 1  
Free Registration Required For Full Results


            Institution Name
Portfolio
Position
New/Closed
Position

Filing Date

Total Shares

Total Value

Change in Shares

File
   D E SHAW & CO INC 67 - 2014-12-31 4,778,502 $168,538,000 -836,626
   CLEARBRIDGE ADVISORS LLC 139 - 2014-12-31 4,691,972 $165,486,000 233,805
   HORIZON KINETICS LLC 14 - 2014-12-31 4,053,049 $142,951,000 -433,306
   BERKSHIRE HATHAWAY INC -- Notable Guru -- 38 - 2014-12-31 4,000,000 $141,080,000 0
   VANGUARD GROUP INC 1262 - 2014-12-31 3,516,967 $124,044,000 89,330
   ROBECO INVESTMENT MANAGEMENT INC 163 - 2014-12-31 2,795,999 $98,615,000 148,428
   PRINCIPAL FINANCIAL GROUP INC 196 - 2014-12-31 2,520,174 $88,887,000 40,614
   BLACKROCK INSTITUTIONAL TRUST COMPANY 1005 - 2014-12-31 2,291,181 $80,810,000 -31,747
   GOLDMAN SACHS GROUP INC/ 615 - 2014-12-31 2,169,440 $76,516,000 -358,784
   SEIZERT CAPITAL PARTNERS LLC 23 - 2014-12-31 2,035,949 $71,808,000 191,833
   FPR PARTNERS LLC 13 - 2014-12-31 1,885,073 $66,487,000 5,072
   BLACKROCK ADVISORS LLC 279 - 2014-12-31 1,859,642 $65,590,000 -96,675
   STATE STREET CORP 1130 - 2014-12-31 1,695,367 $59,801,000 12,096
   GRUSS ASSET MGMT LP 6 - 2014-12-31 1,625,000 $57,314,000 591,807
   DEUTSCHE BANK AG 534 - 2014-12-31 1,603,126 $56,538,000 421,058
   MUNDER CAPITAL MANAGEMENT - 2014-09-30 948,636 $44,757,000 -2,196
   BLACKROCK GROUP LTD 614 - 2014-12-31 1,265,408 $44,631,000 3,506
   WELLS FARGO & CO/MN 827 - 2014-12-31 1,213,417 $42,797,000 -1,968
   P SCHOENFELD ASSET MANAGEMENT LLC/NY 17 - 2014-12-31 1,140,782 $40,235,000 347,643
   FIRST MANHATTAN CO 85 - 2014-12-31 1,114,023 $39,290,000 555,683
   WEITZ WALLACE R & CO -- Notable Guru -- 33 - 2014-12-31 1,107,317 $39,055,000 -366,264
   CITADEL ADVISORS LLC 374 - 2014-12-31 1,104,465 $38,954,000 134,380
   FINDLAY PARK PARTNERS LLP 84 *New 2014-12-31 975,000 $34,388,000 975,000
   VISIUM ASSET MANAGEMENT LP 30 - 2014-12-31 972,342 $34,296,000 135,545
   J P MORGAN CHASE & CO 1000 - 2014-12-31 937,829 $33,077,000 -81,547
   INVESCO LTD 946 - 2014-12-31 929,726 $32,791,000 -110,889
   VICTORY CAPITAL MANAGEMENT INC 279 *New 2014-12-31 920,863 $32,479,000 920,863
   ARISTEIA CAPITAL LLC 9 - 2014-12-31 897,271 $31,647,000 -154,275
   BLACKROCK FUND ADVISORS 1850 - 2014-12-31 800,622 $28,238,000 55,800
   ARROWGRASS CAPITAL PARTNERS (US) LP 18 - 2014-12-31 773,050 $27,265,000 363,807
   FIRST TRUST ADVISORS LP 284 - 2014-12-31 773,039 $27,265,000 447,048
   GAMCO INVESTORS INC ET AL 188 - 2014-12-31 703,329 $24,806,000 -34,119
   GUGGENHEIM CAPITAL LLC 587 - 2014-12-31 677,838 $23,907,000 437,383
   FMR LLC 1631 - 2014-12-31 673,749 $23,763,000 -1,460,758
   CLOUGH CAPITAL PARTNERS L P 40 - 2014-12-31 666,481 $23,507,000 277,094
   GEODE CAPITAL MANAGEMENT LLC 789 - 2014-12-31 642,415 $22,646,000 96,986
   BAMCO INC /NY/ 195 - 2014-12-31 639,844 $22,567,000 -57,900
   KENSICO CAPITAL MANAGEMENT CORP 24 - 2014-12-31 618,600 $21,818,000 2,600
   DIMENSIONAL FUND ADVISORS INC 1667 - 2014-12-31 610,869 $21,549,000 6,098
   NORTHERN TRUST CORP 1543 - 2014-12-31 562,169 $19,829,000 -13,135
   GABELLI FUNDS LLC 291 - 2014-12-31 552,500 $19,487,000 -17,000
   EverPoint Asset Management LLC 67 - 2014-12-31 547,447 $19,308,000 -102,553
   BANK OF NEW YORK MELLON CORP 1564 - 2014-12-31 497,050 $17,531,000 87,629
   DAVENPORT & CO LLC 104 - 2014-09-30 351,380 $16,578,000 2,185
   MORGAN STANLEY 1648 - 2014-12-31 447,476 $15,782,000 -96,869
   EMPYREAN CAPITAL PARTNERS LP 22 - 2014-12-31 420,000 $14,813,000 0
   Roystone Capital Management LP 32 - 2014-12-31 409,600 $14,447,000 0
   MARKSTON INTERNATIONAL LLC 41 - 2014-12-31 398,960 $14,072,000 -14,865
   PASSPORT CAPITAL, LLC 44 - 2014-12-31 395,000 $13,932,000 395,000
   Ashe Capital Management LLC 8 - 2014-12-31 389,889 $13,751,000 0
   TWO SIGMA INVESTMENTS LLC 316 *New 2014-12-31 387,951 $13,683,000 387,951
   LEGAL & GENERAL GROUP PLC 599 - 2014-12-31 381,385 $13,452,000 6,474
   MARSHALL WACE LLP 160 - 2014-12-31 371,778 $13,112,000 72,283
   LOOMIS SAYLES & CO L P 437 - 2014-12-31 366,003 $12,909,000 -1,317
   MANAGED ACCOUNT ADVISORS LLC 937 - 2014-12-31 351,977 $12,415,000 66,324
   KINGSTOWN CAPITAL MANAGEMENT L.P. 14 - 2014-12-31 350,000 $12,345,000 0
   CREDIT SUISSE/ 968 - 2014-12-31 346,440 $12,219,000 -26,687
   MARKEL CORP 60 - 2014-12-31 341,000 $12,027,000 48,000
   ROBECO INSTITUTIONAL ASSET MANAGEMENT B.V. 259 - 2014-12-31 308,645 $10,886,000 18,285
   PINNACLE ASSOCIATES LTD 114 - 2014-12-31 301,448 $10,632,000 14,041
   BHR CAPITAL, LLC 22 - 2014-12-31 300,000 $10,581,000 0
   CARLSON CAPITAL L P 222 *New 2014-12-31 285,000 $10,052,000 285,000
   LOCUST WOOD CAPITAL ADVISERS LLC 30 - 2014-12-31 277,506 $9,788,000 11,572
   SUMITOMO MITSUI TRUST HOLDINGS, INC. 630 - 2014-12-31 269,052 $9,596,000 34,163
   TIAA CREF INVESTMENT MANAGEMENT LLC 1167 - 2014-12-31 260,520 $9,189,000 -47,490
   KINGDON CAPITAL MANAGEMENT LLC 60 - 2014-12-31 255,000 $8,933,000 -70,000
   APG ALL PENSIONS GROUP 607 - 2014-12-31 248,189 $8,754,000 -27,186
   CALIFORNIA PUBLIC EMPLOYEES RETIREMENT SYSTEM 1033 - 2014-12-31 243,523 $8,638,000 0
   UBS GLOBAL ASSET MANAGEMENT AMERICAS INC 874 - 2014-12-31 234,996 $8,289,000 -201
   BLACKROCK INVESTMENT MANAGEMENT LLC 1091 - 2014-12-31 221,209 $7,802,000 -2,008
   Swift Run Capital Management LLC 10 - 2014-12-31 214,257 $7,557,000 100,530
   CALIFORNIA STATE TEACHERS RETIREMENT SYSTEM 776 - 2014-12-31 213,414 $7,527,000 1,774
   TWO SIGMA ADVISERS, LLC 354 *New 2014-12-31 209,858 $7,401,000 209,858
   INDEPENDENCE CAPITAL ASSET PARTNERS LLC 45 *New 2014-12-31 208,978 $7,371,000 208,978
   FRANKLIN RESOURCES INC 1061 - 2014-12-31 201,320 $7,101,000 365
   S&CO INC 32 - 2014-12-31 194,644 $6,865,000 -99,490
   DOUGLASS WINTHROP ADVISORS LLC 43 - 2014-12-31 190,485 $6,718,000 42,320
   UBS AG 1329 - 2014-09-30 142,321 $6,714,000 15,220
   Napier Park Global Capital LLC 11 - 2014-12-31 186,466 $6,576,000 8,546
   SCHWAB CHARLES INVESTMENT MANAGEMENT INC 1245 - 2014-12-31 182,455 $6,436,000 25,085
   MITSUBISHI UFJ TRUST & BANKING CORP 668 - 2014-12-31 178,655 $6,301,000 12,978
   SCHRODER INVESTMENT MANAGEMENT GROUP 744 - 2014-12-31 175,003 $6,173,000 174,045
   BANK OF AMERICA CORP /DE/ 1836 - 2014-12-31 161,683 $5,703,000 16,392
   ARROWPOINT ASSET MANAGEMENT, LLC 141 - 2014-12-31 156,854 $5,532,000 0
   ARNHOLD & S BLEICHROEDER ADVISERS LLC 177 - 2014-12-31 156,391 $5,516,000 0
   ARROWSTREET CAPITAL LIMITED PARTNERSHIP 429 *New 2014-12-31 155,595 $5,488,000 155,595
   UBS Group AG 1582 - 2014-12-31 145,537 $5,134,000 0
   FJARDE APFONDEN /FOURTH SWEDISH NATIONAL PENSION F 220 - 2014-12-31 109,879 $5,045,000 12,404
   NOMURA HOLDINGS INC 233 - 2014-12-31 117,081 $5,013,000 -6,824
   CQS CAYMAN LP 41 - 2014-12-31 141,094 $4,976,000 -61,986
   DORSAL CAPITAL MANAGEMENT, LLC 23 - 2014-12-31 140,000 $4,938,000 -20,000
   STATE BOARD OF ADMINISTRATION OF FLORIDA RETIREMEN 812 - 2014-12-31 139,498 $4,920,000 -2,830
   RAYMOND JAMES & ASSOCIATES 684 - 2014-12-31 139,322 $4,914,000 35,787
   WALLACE CAPITAL MANAGEMENT INC. 25 - 2014-12-31 136,469 $4,813,000 -271,138
   CITIGROUP INC 821 - 2014-12-31 130,919 $4,617,000 44,509
   PANAGORA ASSET MANAGEMENT INC 500 - 2014-12-31 127,667 $4,503,000 118,839
   MIZUHO TRUST & BANKING CO., LTD. 664 - 2014-12-31 123,789 $4,366,000 -5,725
   KIRR MARBACH & CO LLC /IN/ 34 - 2014-12-31 123,637 $4,361,000 -407
   BISLETT MANAGEMENT LLC 18 *New 2014-12-31 110,700 $3,904,000 110,700
   Hosking & Co Ltd 82 - 2014-12-31 108,370 $3,822,000 0

  100 Records found
  1    
  Page 1 of 1
Free Registration Required For Full Results